createdAt,value
2019-03-03T00:00:22.037Z,20.05
2019-03-03T00:02:50.560Z,20.02
2019-03-03T00:05:18.991Z,22.10
2019-03-03T00:07:47.457Z,20.15
2019-03-03T00:10:16.040Z,20.20
2019-03-03T00:12:44.893Z,17.98
2019-03-03T00:15:13.480Z,21.90
2019-03-03T00:17:41.911Z,18.00
2019-03-03T00:20:13.027Z,17.23
2019-03-03T00:22:41.468Z,15.30
2019-03-03T00:25:11.660Z,16.73
2019-03-03T00:27:40.189Z,17.73
2019-03-03T00:30:13.987Z,18.75
2019-03-03T00:32:42.821Z,18.00
2019-03-03T00:35:11.483Z,14.13
2019-03-03T00:37:56.308Z,16.32
2019-03-03T00:40:35.610Z,17.35
2019-03-03T00:43:08.721Z,16.17
2019-03-03T00:45:55.365Z,15.60
2019-03-03T00:48:31.602Z,16.87
2019-03-03T00:51:10.744Z,19.10
2019-03-03T00:53:49.570Z,18.85
2019-03-03T00:56:19.730Z,16.07
2019-03-03T00:58:52.338Z,16.45
2019-03-03T01:01:31.598Z,19.75
2019-03-03T01:04:04.217Z,18.15
2019-03-03T01:06:40.477Z,14.50
2019-03-03T01:09:21.769Z,16.70
2019-03-03T01:11:52.282Z,20.73
2019-03-03T01:14:22.361Z,16.65
2019-03-03T01:17:07.666Z,15.58
2019-03-03T01:19:40.478Z,19.17
2019-03-03T01:22:10.620Z,18.35
2019-03-03T01:24:50.150Z,14.75
2019-03-03T01:27:18.589Z,15.68
2019-03-03T01:29:47.053Z,19.32
2019-03-03T01:32:15.762Z,15.98
2019-03-03T01:34:44.197Z,17.85
2019-03-03T01:37:12.634Z,15.98
2019-03-03T01:39:41.061Z,19.70
2019-03-03T01:42:09.657Z,17.92
2019-03-03T01:44:39.248Z,15.70
2019-03-03T01:47:07.701Z,20.75
2019-03-03T01:49:36.129Z,15.38
2019-03-03T01:52:04.709Z,17.17
2019-03-03T01:54:33.199Z,19.57
2019-03-03T01:57:01.661Z,18.25
2019-03-03T01:59:30.097Z,15.93
2019-03-03T02:01:58.541Z,16.40
2019-03-03T02:04:26.976Z,17.05
2019-03-03T02:06:55.416Z,17.65
2019-03-03T02:09:23.886Z,15.48
2019-03-03T02:11:52.424Z,20.05
2019-03-03T02:14:20.879Z,18.48
2019-03-03T02:16:49.389Z,15.58
2019-03-03T02:19:17.826Z,16.52
2019-03-03T02:21:46.274Z,14.78
2019-03-03T02:24:14.772Z,16.77
2019-03-03T02:26:43.245Z,18.57
2019-03-03T02:29:11.708Z,17.17
2019-03-03T02:31:40.129Z,9.38
2019-03-03T02:34:08.590Z,8.95
2019-03-03T02:36:37.008Z,7.10
2019-03-03T02:39:11.086Z,6.53
2019-03-03T02:41:39.527Z,5.30
2019-03-03T02:44:08.020Z,4.55
2019-03-03T02:46:36.461Z,4.72
2019-03-03T02:49:04.886Z,5.42
2019-03-03T02:51:33.398Z,5.95
2019-03-03T02:54:01.819Z,5.83
2019-03-03T02:56:30.257Z,5.20
2019-03-03T02:58:58.677Z,8.35
2019-03-03T03:01:29.016Z,9.55
2019-03-03T03:03:57.454Z,14.58
2019-03-03T03:06:43.899Z,12.73
2019-03-03T03:09:17.077Z,12.55
2019-03-03T03:11:56.365Z,12.82
2019-03-03T03:14:29.367Z,15.60
2019-03-03T03:16:59.758Z,12.93
2019-03-03T03:19:35.557Z,14.05
2019-03-03T03:22:05.662Z,13.48
2019-03-03T03:24:35.832Z,12.55
2019-03-03T03:27:08.758Z,14.30
2019-03-03T03:29:41.481Z,12.53
2019-03-03T03:32:11.567Z,13.05
2019-03-03T03:34:44.706Z,12.55
2019-03-03T03:37:14.862Z,13.40
2019-03-03T03:39:45.007Z,13.18
2019-03-03T03:42:18.069Z,12.80
2019-03-03T03:45:00.515Z,13.13
2019-03-03T03:47:36.280Z,12.68
2019-03-03T03:50:14.850Z,14.60
2019-03-03T03:53:03.441Z,14.63
2019-03-03T03:55:48.930Z,12.50
2019-03-03T03:58:27.795Z,13.48
2019-03-03T04:01:03.615Z,14.20
2019-03-03T04:03:36.657Z,12.82
2019-03-03T04:06:18.746Z,14.23
2019-03-03T04:08:55.132Z,14.85
2019-03-03T04:11:25.219Z,13.05
2019-03-03T04:14:04.186Z,14.20
2019-03-03T04:16:46.242Z,18.17
2019-03-03T04:19:16.341Z,14.98
2019-03-03T04:22:02.376Z,14.20
2019-03-03T04:24:44.288Z,13.15
2019-03-03T04:27:17.338Z,14.28
2019-03-03T04:29:53.285Z,13.08
2019-03-03T04:32:31.857Z,13.80
2019-03-03T04:35:07.661Z,11.75
2019-03-03T04:37:46.574Z,18.05
2019-03-03T04:40:31.805Z,15.28
2019-03-03T04:43:04.795Z,13.03
2019-03-03T04:45:34.869Z,13.30
2019-03-03T04:48:11.156Z,17.87
2019-03-03T04:50:58.061Z,16.87
2019-03-03T04:53:40.126Z,15.45
2019-03-03T04:56:16.080Z,13.85
2019-03-03T04:58:55.357Z,13.13
2019-03-03T05:01:25.428Z,15.45
2019-03-03T05:04:01.270Z,13.38
2019-03-03T05:06:37.128Z,15.18
2019-03-03T05:09:08.653Z,15.70
2019-03-03T05:12:04.531Z,15.55
2019-03-03T05:14:34.612Z,18.32
2019-03-03T05:17:04.685Z,16.00
2019-03-03T05:19:33.301Z,15.43
2019-03-03T05:22:01.737Z,13.03
2019-03-03T05:24:34.291Z,13.98
2019-03-03T05:27:00.334Z,12.75
2019-03-03T05:29:28.777Z,13.30
2019-03-03T05:31:57.247Z,12.28
2019-03-03T05:34:25.726Z,13.25
2019-03-03T05:36:54.157Z,13.70
2019-03-03T05:39:22.601Z,14.25
2019-03-03T05:41:51.038Z,12.98
2019-03-03T05:44:19.483Z,13.08
2019-03-03T05:46:48.512Z,12.58
2019-03-03T05:49:17.412Z,12.30
2019-03-03T05:51:45.845Z,12.03
2019-03-03T05:54:14.274Z,11.97
2019-03-03T05:56:42.726Z,12.28
2019-03-03T05:59:11.275Z,14.00
2019-03-03T06:01:39.713Z,14.58
2019-03-03T06:04:08.143Z,12.90
2019-03-03T06:06:36.606Z,14.73
2019-03-03T06:09:06.885Z,12.07
2019-03-03T06:11:35.692Z,14.45
2019-03-03T06:14:04.198Z,10.68
2019-03-03T06:16:32.641Z,11.35
2019-03-03T06:19:01.067Z,14.75
2019-03-03T06:21:29.519Z,11.63
2019-03-03T06:23:57.945Z,14.58
2019-03-03T06:26:26.392Z,15.25
2019-03-03T06:28:55.166Z,14.03
2019-03-03T06:31:23.681Z,14.55
2019-03-03T06:33:52.113Z,12.65
2019-03-03T06:36:20.557Z,12.63
2019-03-03T06:38:48.990Z,11.85
2019-03-03T06:41:17.433Z,12.40
2019-03-03T06:43:45.870Z,13.10
2019-03-03T06:46:14.315Z,14.10
2019-03-03T06:48:42.745Z,13.68
2019-03-03T06:51:11.197Z,15.58
2019-03-03T06:53:39.637Z,11.18
2019-03-03T06:56:08.147Z,12.15
2019-03-03T06:58:36.570Z,12.05
2019-03-03T07:01:05.022Z,11.35
2019-03-03T07:03:33.449Z,10.45
2019-03-03T07:06:01.898Z,10.78
2019-03-03T07:08:30.325Z,11.00
2019-03-03T07:10:58.770Z,10.90
2019-03-03T07:13:27.201Z,11.48
2019-03-03T07:15:55.644Z,27.10
2019-03-03T07:18:24.077Z,11.25
2019-03-03T07:20:52.520Z,24.85
2019-03-03T07:23:20.954Z,41.35
2019-03-03T07:25:49.477Z,197.50
2019-03-03T07:28:17.919Z,43.40
2019-03-03T07:30:46.361Z,169.53
2019-03-03T07:33:15.661Z,37.60
2019-03-03T07:35:44.109Z,19.48
2019-03-03T07:38:12.546Z,14.03
2019-03-03T07:40:40.987Z,10.32
2019-03-03T07:43:09.422Z,11.28
2019-03-03T07:45:37.910Z,11.53
2019-03-03T07:48:06.357Z,13.58
2019-03-03T07:50:34.797Z,16.62
2019-03-03T07:53:03.313Z,15.23
2019-03-03T07:55:31.773Z,19.07
2019-03-03T07:58:00.225Z,15.18
2019-03-03T08:00:28.657Z,16.27
2019-03-03T08:02:57.370Z,17.12
2019-03-03T08:05:25.799Z,13.98
2019-03-03T08:07:54.250Z,14.50
2019-03-03T08:10:22.678Z,16.97
2019-03-03T08:12:51.370Z,17.92
2019-03-03T08:15:19.873Z,16.60
2019-03-03T08:17:48.385Z,15.45
2019-03-03T08:20:16.809Z,14.33
2019-03-03T08:22:45.255Z,12.95
2019-03-03T08:25:14.053Z,12.60
2019-03-03T08:27:42.500Z,11.73
2019-03-03T08:30:20.397Z,12.35
2019-03-03T08:32:48.845Z,13.75
2019-03-03T08:35:23.030Z,13.98
2019-03-03T08:37:51.476Z,10.13
2019-03-03T08:40:20.162Z,10.20
2019-03-03T08:42:50.245Z,8.40
2019-03-03T08:45:37.001Z,8.80
2019-03-03T08:48:07.150Z,7.87
2019-03-03T08:50:37.226Z,11.65
2019-03-03T08:53:07.309Z,15.32
2019-03-03T08:55:42.818Z,34.75
2019-03-03T08:58:24.761Z,17.65
2019-03-03T09:01:00.608Z,67.35
2019-03-03T09:03:33.450Z,52.55
2019-03-03T09:06:03.541Z,28.77
2019-03-03T09:08:33.893Z,191.25
2019-03-03T09:11:03.961Z,159.82
2019-03-03T09:13:47.916Z,13.48
2019-03-03T09:16:25.405Z,7.08
2019-03-03T09:19:09.088Z,6.10
2019-03-03T09:21:55.727Z,6.30
2019-03-03T09:24:37.816Z,7.00
2019-03-03T09:27:07.954Z,7.72
2019-03-03T09:29:38.039Z,6.55
2019-03-03T09:32:16.996Z,6.70
2019-03-03T09:34:47.078Z,5.90
2019-03-03T09:37:17.214Z,5.55
2019-03-03T09:39:47.305Z,16.30
2019-03-03T09:42:33.500Z,15.58
2019-03-03T09:45:06.554Z,6.78
2019-03-03T09:47:39.604Z,8.55
2019-03-03T09:50:28.461Z,5.97
2019-03-03T09:52:58.541Z,6.35
2019-03-03T09:55:28.625Z,14.28
2019-03-03T09:58:01.398Z,8.63
2019-03-03T10:00:31.525Z,7.85
2019-03-03T10:03:01.597Z,11.38
2019-03-03T10:05:31.673Z,9.63
2019-03-03T10:08:13.321Z,8.68
2019-03-03T10:10:43.738Z,6.75
2019-03-03T10:13:35.077Z,4.28
2019-03-03T10:16:07.902Z,3.40
2019-03-03T10:19:07.213Z,4.40
2019-03-03T10:21:30.741Z,3.00
2019-03-03T10:24:01.146Z,4.10
2019-03-03T10:26:47.466Z,3.70
2019-03-03T10:29:17.574Z,3.65
2019-03-03T10:31:50.428Z,3.92
2019-03-03T10:34:23.434Z,4.05
2019-03-03T10:36:56.509Z,3.47
2019-03-03T10:39:26.576Z,3.58
2019-03-03T10:41:59.374Z,4.17
2019-03-03T10:44:29.757Z,3.40
2019-03-03T10:47:11.845Z,4.53
2019-03-03T10:49:47.921Z,3.95
2019-03-03T10:52:20.946Z,3.37
2019-03-03T10:54:56.894Z,2.92
2019-03-03T10:57:35.950Z,3.40
2019-03-03T11:00:09.113Z,3.70
2019-03-03T11:02:45.422Z,3.27
2019-03-03T11:05:18.797Z,2.87
2019-03-03T11:08:00.710Z,3.25
2019-03-03T11:10:33.836Z,2.80
2019-03-03T11:13:03.907Z,3.45
2019-03-03T11:15:49.351Z,3.62
2019-03-03T11:18:19.554Z,3.77
2019-03-03T11:20:58.689Z,4.10
2019-03-03T11:23:31.760Z,3.22
2019-03-03T11:26:18.121Z,3.37
2019-03-03T11:28:57.408Z,2.83
2019-03-03T11:31:30.461Z,2.42
2019-03-03T11:34:03.559Z,2.80
2019-03-03T11:36:33.906Z,2.87
2019-03-03T11:39:22.594Z,3.35
2019-03-03T11:42:01.993Z,3.05
2019-03-03T11:44:37.819Z,3.15
2019-03-03T11:47:13.829Z,2.58
2019-03-03T11:50:02.117Z,2.92
2019-03-03T11:52:32.213Z,3.35
2019-03-03T11:55:02.280Z,3.00
2019-03-03T11:57:49.068Z,3.25
2019-03-03T12:00:37.875Z,3.60
2019-03-03T12:03:16.790Z,3.00
2019-03-03T12:05:49.373Z,3.08
2019-03-03T12:08:21.938Z,3.72
2019-03-03T12:11:08.194Z,3.83
2019-03-03T12:13:47.286Z,4.30
2019-03-03T12:16:23.335Z,3.47
2019-03-03T12:19:02.629Z,2.65
2019-03-03T12:21:32.693Z,2.80
2019-03-03T12:24:11.495Z,3.08
2019-03-03T12:26:57.996Z,3.72
2019-03-03T12:29:30.497Z,2.80
2019-03-03T12:32:06.604Z,3.90
2019-03-03T12:34:39.646Z,3.27
2019-03-03T12:37:24.748Z,3.72
2019-03-03T12:39:54.826Z,2.50
2019-03-03T12:42:40.918Z,2.50
2019-03-03T12:45:11.094Z,2.90
2019-03-03T12:47:50.121Z,2.35
2019-03-03T12:50:23.153Z,2.67
2019-03-03T12:53:05.506Z,2.98
2019-03-03T12:55:51.506Z,3.17
2019-03-03T12:58:21.587Z,4.35
2019-03-03T13:00:51.720Z,2.77
2019-03-03T13:17:37.623Z,3.00
2019-03-03T13:20:19.525Z,2.50
2019-03-03T13:22:49.676Z,4.05
2019-03-03T13:25:36.265Z,2.52
2019-03-03T13:28:12.143Z,3.12
2019-03-03T13:30:42.386Z,3.12
2019-03-03T13:33:18.180Z,2.83
2019-03-03T13:36:04.501Z,2.67
2019-03-03T13:38:34.569Z,2.30
2019-03-03T13:41:04.641Z,2.30
2019-03-03T13:43:34.376Z,2.50
2019-03-03T13:46:03.049Z,1.70
2019-03-03T13:48:31.477Z,1.85
2019-03-03T13:50:59.913Z,2.02
2019-03-03T13:53:28.353Z,1.70
2019-03-03T13:55:56.848Z,1.65
2019-03-03T13:58:25.284Z,1.82
2019-03-03T14:00:53.716Z,1.37
2019-03-03T14:03:22.509Z,1.50
2019-03-03T14:05:51.032Z,1.65
2019-03-03T14:15:06.683Z,1.90
2019-03-03T14:17:35.141Z,2.10
2019-03-03T14:20:04.918Z,2.25
2019-03-03T14:22:33.354Z,1.50
2019-03-03T14:25:02.086Z,1.85
2019-03-03T14:27:30.517Z,2.35
2019-03-03T14:29:59.237Z,2.47
2019-03-03T14:32:27.668Z,2.10
2019-03-03T14:34:56.167Z,1.52
2019-03-03T14:37:24.982Z,1.65
2019-03-03T14:39:53.426Z,1.70
2019-03-03T14:42:21.864Z,1.40
2019-03-03T14:44:50.296Z,1.40
2019-03-03T14:47:18.801Z,1.80
2019-03-03T14:49:47.288Z,1.40
2019-03-03T14:52:15.981Z,1.40
2019-03-03T14:54:44.426Z,1.87
2019-03-03T14:57:12.858Z,2.20
2019-03-03T14:59:41.630Z,2.05
2019-03-03T15:02:10.130Z,1.80
2019-03-03T15:04:38.569Z,1.47
2019-03-03T15:07:07.001Z,1.40
2019-03-03T15:09:35.513Z,1.35
2019-03-03T15:12:04.011Z,1.65
2019-03-03T15:14:32.445Z,3.12
2019-03-03T15:17:00.967Z,2.02
2019-03-03T15:19:29.451Z,1.87
2019-03-03T15:21:57.967Z,1.75
2019-03-03T15:24:26.501Z,1.90
2019-03-03T15:26:55.256Z,1.45
2019-03-03T15:29:25.393Z,1.62
2019-03-03T15:31:53.890Z,1.75
2019-03-03T15:37:51.309Z,1.62
2019-03-03T15:40:25.133Z,1.50
2019-03-03T15:42:54.024Z,1.50
2019-03-03T15:45:24.957Z,1.57
2019-03-03T15:47:53.405Z,2.52
2019-03-03T15:50:22.380Z,1.57
2019-03-03T15:52:50.968Z,2.42
2019-03-03T15:55:25.259Z,1.50
2019-03-03T15:57:54.018Z,1.32
2019-03-03T16:00:33.377Z,1.40
2019-03-03T16:03:01.829Z,1.57
2019-03-03T16:05:30.380Z,2.37
2019-03-03T16:07:59.111Z,2.42
2019-03-03T16:10:27.983Z,2.20
2019-03-03T16:12:56.504Z,1.92
2019-03-03T16:15:25.276Z,2.12
2019-03-03T16:17:54.066Z,1.27
2019-03-03T16:20:23.894Z,13.25
2019-03-03T16:22:52.346Z,4.78
2019-03-03T16:25:22.211Z,4.55
2019-03-03T16:27:50.673Z,2.58
2019-03-03T16:30:20.638Z,2.65
2019-03-03T16:32:49.462Z,1.87
2019-03-03T16:35:18.297Z,2.10
2019-03-03T16:37:46.737Z,2.30
2019-03-03T16:40:20.798Z,1.12
2019-03-03T16:42:49.815Z,65.78
2019-03-03T16:45:18.321Z,131.32
2019-03-03T16:47:46.871Z,217.13
2019-03-03T16:50:17.918Z,30.85
2019-03-03T16:52:46.601Z,3.37
2019-03-03T16:55:16.642Z,124.80
2019-03-03T16:57:45.169Z,273.05
2019-03-03T17:00:25.085Z,608.70
2019-03-03T17:02:53.551Z,268.60
2019-03-03T17:05:24.791Z,84.28
2019-03-03T17:07:53.251Z,27.52
2019-03-03T17:10:21.690Z,2.10
2019-03-03T17:12:50.476Z,5.33
2019-03-03T17:15:27.011Z,4.90
2019-03-03T17:17:55.452Z,4.60
2019-03-03T17:20:24.197Z,5.47
2019-03-03T17:22:52.642Z,5.85
2019-03-03T17:25:28.941Z,3.98
2019-03-03T17:27:57.387Z,3.37
2019-03-03T17:30:27.211Z,5.58
2019-03-03T17:32:55.653Z,3.45
2019-03-03T17:35:24.089Z,3.00
2019-03-03T17:37:52.887Z,4.67
2019-03-03T17:40:26.436Z,2.02
2019-03-03T17:42:55.199Z,3.65
2019-03-03T17:45:25.346Z,1.90
2019-03-03T17:47:53.849Z,2.05
2019-03-03T17:50:24.914Z,3.50
2019-03-03T17:52:53.353Z,4.13
2019-03-03T17:55:21.883Z,3.37
2019-03-03T17:57:50.344Z,3.10
2019-03-03T18:00:26.268Z,4.75
2019-03-03T18:02:55.334Z,3.35
2019-03-03T18:05:23.963Z,3.20
2019-03-03T18:07:52.486Z,5.83
2019-03-03T18:10:21.052Z,19.32
2019-03-03T18:12:49.719Z,60.33
2019-03-03T18:15:18.848Z,46.42
2019-03-03T18:17:47.465Z,35.70
2019-03-03T18:20:19.149Z,10.80
2019-03-03T18:25:17.653Z,17.48
2019-03-03T18:27:46.382Z,41.03
2019-03-03T18:30:25.138Z,117.22
2019-03-03T18:32:53.640Z,78.80
2019-03-03T18:35:22.595Z,12.30
2019-03-03T18:37:51.104Z,91.75
2019-03-03T18:40:23.861Z,31.02
2019-03-03T18:42:52.723Z,4.10
2019-03-03T18:45:24.583Z,11.15
2019-03-03T18:47:53.218Z,6.08
2019-03-03T18:50:29.221Z,4.17
2019-03-03T18:52:59.845Z,6.08
2019-03-03T18:55:27.942Z,3.52
2019-03-03T18:57:56.374Z,5.37
2019-03-03T19:00:28.210Z,3.47
2019-03-03T19:02:58.161Z,4.90
2019-03-03T19:05:27.303Z,3.87
2019-03-03T19:07:55.795Z,2.65
2019-03-03T19:10:29.656Z,3.00
2019-03-03T19:12:58.091Z,3.00
2019-03-03T19:15:26.521Z,4.67
2019-03-03T19:17:55.020Z,3.35
2019-03-03T19:20:23.529Z,5.15
2019-03-03T19:22:52.283Z,3.33
2019-03-03T19:25:20.867Z,3.65
2019-03-03T19:27:49.366Z,6.87
2019-03-03T19:30:28.465Z,5.55
2019-03-03T19:33:02.541Z,4.97
2019-03-03T19:35:31.402Z,4.42
2019-03-03T19:37:59.832Z,6.28
2019-03-03T19:40:28.364Z,7.72
2019-03-03T19:42:56.871Z,5.87
2019-03-03T19:45:34.853Z,14.75
2019-03-03T19:48:03.452Z,5.67
2019-03-03T19:50:32.418Z,4.90
2019-03-03T19:53:00.959Z,7.92
2019-03-03T19:55:29.927Z,7.22
2019-03-03T19:57:58.439Z,5.95
2019-03-03T20:00:39.185Z,7.95
2019-03-03T20:03:08.118Z,5.97
2019-03-03T20:05:36.640Z,6.05
2019-03-03T20:08:06.124Z,5.50
2019-03-03T20:10:35.117Z,4.70
2019-03-03T20:13:03.981Z,4.83
2019-03-03T20:15:33.114Z,4.03
2019-03-03T20:18:02.770Z,4.50
2019-03-03T20:20:31.615Z,4.95
2019-03-03T20:23:00.058Z,5.45
2019-03-03T20:25:28.567Z,5.00
2019-03-03T20:27:57.099Z,4.65
2019-03-03T20:30:26.101Z,4.50
2019-03-03T20:32:54.629Z,4.47
2019-03-03T20:35:23.133Z,4.47
2019-03-03T20:37:52.024Z,5.55
2019-03-03T20:40:25.483Z,5.25
2019-03-03T20:42:55.821Z,6.12
2019-03-03T20:45:32.266Z,6.47
2019-03-03T20:48:00.695Z,6.22
2019-03-03T20:50:29.239Z,5.65
2019-03-03T20:52:58.078Z,6.30
2019-03-03T20:55:31.070Z,9.75
2019-03-03T20:57:59.586Z,5.08
2019-03-03T21:00:33.244Z,5.83
2019-03-03T21:03:01.746Z,6.92
2019-03-03T21:05:30.498Z,5.28
2019-03-03T21:07:58.949Z,4.55
2019-03-03T21:10:31.422Z,3.85
2019-03-03T21:13:00.081Z,5.00
2019-03-03T21:15:28.967Z,9.15
2019-03-03T21:17:57.665Z,11.28
2019-03-03T21:20:26.955Z,3.70
2019-03-03T21:22:55.765Z,4.33
2019-03-03T21:25:24.594Z,4.00
2019-03-03T21:27:53.039Z,4.25
2019-03-03T21:30:26.618Z,5.30
2019-03-03T21:32:55.244Z,40.67
2019-03-03T21:35:23.753Z,37.05
2019-03-03T21:37:52.584Z,23.38
2019-03-03T21:40:27.083Z,8.00
2019-03-03T21:42:55.965Z,8.50
2019-03-03T21:45:31.167Z,6.92
2019-03-03T21:47:59.638Z,6.95
2019-03-03T21:50:29.715Z,7.35
2019-03-03T21:52:58.289Z,8.08
2019-03-03T21:55:26.718Z,5.58
2019-03-03T21:57:55.163Z,6.95
2019-03-03T22:00:32.870Z,5.08
2019-03-03T22:03:01.566Z,4.78
2019-03-03T22:05:30.199Z,6.55
2019-03-03T22:07:58.996Z,8.53
2019-03-03T22:10:30.494Z,4.95
2019-03-03T22:15:31.326Z,4.37
2019-03-03T22:17:59.829Z,4.60
2019-03-03T22:20:28.570Z,4.95
2019-03-03T22:22:57.091Z,5.03
2019-03-03T22:25:25.510Z,6.53
2019-03-03T22:27:53.991Z,18.73
2019-03-03T22:30:22.905Z,5.85
2019-03-03T22:32:51.357Z,4.22
2019-03-03T22:35:19.803Z,4.53
2019-03-03T22:37:48.246Z,5.67
2019-03-03T22:40:21.407Z,5.70
2019-03-03T22:42:49.857Z,5.15
2019-03-03T22:45:18.840Z,4.47
2019-03-03T22:47:47.409Z,4.45
2019-03-03T22:50:18.150Z,3.92
2019-03-03T22:52:46.650Z,4.47
2019-03-03T22:55:17.382Z,4.03
2019-03-03T22:57:46.152Z,5.27
2019-03-03T23:00:28.650Z,14.13
2019-03-03T23:02:57.080Z,10.18
2019-03-03T23:05:37.743Z,5.78
2019-03-03T23:08:09.559Z,55.90
2019-03-03T23:10:44.187Z,44.67
2019-03-03T23:13:18.449Z,6.75
2019-03-03T23:16:01.838Z,6.83
2019-03-03T23:18:48.241Z,8.43
2019-03-03T23:21:34.653Z,5.12
2019-03-03T23:24:11.881Z,5.10
2019-03-03T23:26:40.382Z,4.35
2019-03-03T23:29:08.839Z,3.55
2019-03-03T23:31:37.580Z,6.08
2019-03-03T23:34:05.998Z,5.83
2019-03-03T23:36:34.450Z,23.12
2019-03-03T23:39:03.331Z,51.35
2019-03-03T23:41:31.768Z,10.75
2019-03-03T23:44:00.210Z,3.83
2019-03-03T23:46:28.638Z,4.15
2019-03-03T23:48:57.062Z,3.87
2019-03-03T23:51:25.654Z,4.42
2019-03-03T23:53:54.107Z,3.85
2019-03-03T23:56:22.902Z,2.75
2019-03-03T23:58:51.591Z,38.65
